createdAt,value
2018-11-23T00:00:08.944Z,9.50
2018-11-23T00:02:39.468Z,9.73
2018-11-23T00:05:10.702Z,9.50
2018-11-23T00:07:43.533Z,10.00
2018-11-23T00:10:17.867Z,10.20
2018-11-23T00:12:49.072Z,9.57
2018-11-23T00:15:23.265Z,9.83
2018-11-23T00:17:54.678Z,9.50
2018-11-23T00:20:26.724Z,10.23
2018-11-23T00:22:58.497Z,11.07
2018-11-23T00:25:29.796Z,10.53
2018-11-23T00:28:02.576Z,9.93
2018-11-23T00:30:34.474Z,9.87
2018-11-23T00:33:06.770Z,10.67
2018-11-23T00:35:38.475Z,10.80
2018-11-23T00:38:09.144Z,10.83
2018-11-23T00:40:40.676Z,10.30
2018-11-23T00:43:11.300Z,10.50
2018-11-23T00:45:43.190Z,10.30
2018-11-23T00:48:17.311Z,10.07
2018-11-23T00:50:48.286Z,10.00
2018-11-23T00:53:22.603Z,10.53
2018-11-23T00:55:53.230Z,10.00
2018-11-23T00:58:26.653Z,11.20
2018-11-23T01:00:58.906Z,9.77
2018-11-23T01:03:29.808Z,9.67
2018-11-23T01:06:00.410Z,9.60
2018-11-23T01:08:40.032Z,9.67
2018-11-23T01:11:11.741Z,9.43
2018-11-23T01:13:46.389Z,10.27
2018-11-23T01:16:18.231Z,9.63
2018-11-23T01:18:49.078Z,9.33
2018-11-23T01:21:20.761Z,9.43
2018-11-23T01:23:53.126Z,9.07
2018-11-23T01:26:24.387Z,9.73
2018-11-23T01:28:55.997Z,9.83
2018-11-23T01:31:26.618Z,8.77
2018-11-23T01:34:02.368Z,9.83
2018-11-23T01:36:36.779Z,9.70
2018-11-23T01:39:10.389Z,9.60
2018-11-23T01:41:55.154Z,9.67
2018-11-23T01:44:28.994Z,9.90
2018-11-23T01:47:01.065Z,10.40
2018-11-23T01:49:32.180Z,9.77
2018-11-23T01:52:02.693Z,9.63
2018-11-23T01:54:37.104Z,9.87
2018-11-23T01:57:08.954Z,10.07
2018-11-23T01:59:39.498Z,10.00
2018-11-23T02:02:12.640Z,10.87
2018-11-23T02:04:46.543Z,12.30
2018-11-23T02:07:18.612Z,12.70
2018-11-23T02:09:49.481Z,10.90
2018-11-23T02:12:22.065Z,10.53
2018-11-23T02:14:54.042Z,10.93
2018-11-23T02:17:26.693Z,10.17
2018-11-23T02:19:59.280Z,10.40
2018-11-23T02:22:33.597Z,11.00
2018-11-23T02:25:04.248Z,10.03
2018-11-23T02:27:35.150Z,10.13
2018-11-23T02:30:11.564Z,9.83
2018-11-23T02:32:44.352Z,10.60
2018-11-23T02:35:17.597Z,10.43
2018-11-23T02:37:50.000Z,10.07
2018-11-23T02:40:21.120Z,9.47
2018-11-23T02:42:51.823Z,10.40
2018-11-23T02:45:23.756Z,10.43
2018-11-23T02:47:54.545Z,9.87
2018-11-23T02:50:26.889Z,9.70
2018-11-23T02:52:57.736Z,9.27
2018-11-23T02:55:31.931Z,10.47
2018-11-23T02:58:03.485Z,10.50
2018-11-23T03:00:35.096Z,10.77
2018-11-23T03:03:05.910Z,10.47
2018-11-23T03:05:36.812Z,10.43
2018-11-23T03:08:08.025Z,10.67
2018-11-23T03:10:41.354Z,11.10
2018-11-23T03:13:13.517Z,11.20
2018-11-23T03:15:46.302Z,11.50
2018-11-23T03:18:17.294Z,11.20
2018-11-23T03:20:50.840Z,11.77
2018-11-23T03:23:24.793Z,12.10
2018-11-23T03:25:55.735Z,11.97
2018-11-23T03:28:27.419Z,12.37
2018-11-23T03:31:00.234Z,13.20
2018-11-23T03:33:33.465Z,11.47
2018-11-23T03:36:05.591Z,11.90
2018-11-23T03:38:37.524Z,12.03
2018-11-23T03:41:09.531Z,11.73
2018-11-23T03:49:57.946Z,11.87
2018-11-23T03:52:30.669Z,12.00
2018-11-23T03:55:03.006Z,11.13
2018-11-23T03:57:34.846Z,11.47
2018-11-23T04:00:17.474Z,10.50
2018-11-23T04:02:47.316Z,10.33
2018-11-23T04:05:20.680Z,11.20
2018-11-23T04:07:52.565Z,12.17
2018-11-23T04:10:24.902Z,11.20
2018-11-23T04:12:55.692Z,11.30
2018-11-23T04:15:30.093Z,11.80
2018-11-23T04:18:03.407Z,11.83
2018-11-23T04:20:36.136Z,11.70
2018-11-23T04:23:08.843Z,11.30
2018-11-23T04:25:40.658Z,11.20
2018-11-23T04:28:12.196Z,11.17
2018-11-23T04:30:43.122Z,10.70
2018-11-23T04:33:15.762Z,11.07
2018-11-23T04:35:48.682Z,10.57
2018-11-23T04:38:20.698Z,10.47
2018-11-23T04:40:53.692Z,10.20
2018-11-23T04:43:27.060Z,10.70
2018-11-23T04:45:58.258Z,10.53
2018-11-23T04:48:30.101Z,11.30
2018-11-23T04:51:02.467Z,10.27
2018-11-23T04:53:36.460Z,11.13
2018-11-23T04:56:10.489Z,10.10
2018-11-23T04:58:43.062Z,11.10
2018-11-23T05:01:15.469Z,10.67
2018-11-23T05:03:47.456Z,10.90
2018-11-23T05:06:21.055Z,10.83
2018-11-23T05:08:53.067Z,11.20
2018-11-23T05:11:23.822Z,11.97
2018-11-23T05:13:57.312Z,12.70
2018-11-23T05:16:29.248Z,11.53
2018-11-23T05:19:01.306Z,12.07
2018-11-23T05:21:32.286Z,11.90
2018-11-23T05:24:03.821Z,12.27
2018-11-23T05:26:36.954Z,12.57
2018-11-23T05:29:09.202Z,12.33
2018-11-23T05:31:39.718Z,12.33
2018-11-23T05:34:10.439Z,11.73
2018-11-23T05:36:43.298Z,12.13
2018-11-23T05:39:17.297Z,12.63
2018-11-23T05:41:49.116Z,11.80
2018-11-23T05:44:21.127Z,11.00
2018-11-23T05:46:52.300Z,12.67
2018-11-23T05:49:25.165Z,11.37
2018-11-23T05:51:58.144Z,11.97
2018-11-23T05:54:30.624Z,12.03
2018-11-23T05:57:02.440Z,12.53
2018-11-23T05:59:36.803Z,12.70
2018-11-23T06:02:10.904Z,11.83
2018-11-23T06:04:49.962Z,12.00
2018-11-23T06:07:22.024Z,11.17
2018-11-23T06:09:54.912Z,11.43
2018-11-23T06:12:25.756Z,11.80
2018-11-23T06:14:56.373Z,11.80
2018-11-23T06:17:27.214Z,11.80
2018-11-23T06:20:00.057Z,12.33
2018-11-23T06:22:32.237Z,12.17
2018-11-23T06:25:04.422Z,12.50
2018-11-23T06:27:37.583Z,11.77
2018-11-23T06:30:11.668Z,12.30
2018-11-23T06:33:02.997Z,11.90
2018-11-23T06:35:36.080Z,11.40
2018-11-23T06:38:06.996Z,13.17
2018-11-23T06:40:37.921Z,11.93
2018-11-23T06:43:08.833Z,11.20
2018-11-23T06:45:41.156Z,12.63
2018-11-23T06:48:12.789Z,11.97
2018-11-23T06:50:43.655Z,12.83
2018-11-23T06:53:14.086Z,12.93
2018-11-23T06:55:44.793Z,12.50
2018-11-23T06:58:15.762Z,12.00
2018-11-23T07:00:46.654Z,11.97
2018-11-23T07:03:17.151Z,12.43
2018-11-23T07:05:50.481Z,12.87
2018-11-23T07:08:24.184Z,12.20
2018-11-23T07:11:01.200Z,12.47
2018-11-23T07:13:34.211Z,11.63
2018-11-23T07:16:06.358Z,13.40
2018-11-23T07:18:39.432Z,13.63
2018-11-23T07:21:11.445Z,14.17
2018-11-23T07:23:44.092Z,17.03
2018-11-23T07:26:15.406Z,17.63
2018-11-23T07:28:48.525Z,19.00
2018-11-23T07:31:19.583Z,18.37
2018-11-23T07:33:51.142Z,18.33
2018-11-23T07:36:22.254Z,19.77
2018-11-23T07:38:54.041Z,18.53
2018-11-23T07:41:44.914Z,16.90
2018-11-23T07:44:16.817Z,13.93
2018-11-23T07:46:47.736Z,11.90
2018-11-23T07:49:18.177Z,11.23
2018-11-23T07:51:49.609Z,11.83
2018-11-23T07:54:22.122Z,11.37
2018-11-23T07:56:52.571Z,11.93
2018-11-23T07:59:24.350Z,11.60
2018-11-23T08:01:58.118Z,12.00
2018-11-23T08:04:29.048Z,11.00
2018-11-23T08:06:59.880Z,12.13
2018-11-23T08:09:31.377Z,12.17
2018-11-23T08:12:01.837Z,12.60
2018-11-23T08:14:33.192Z,11.77
2018-11-23T08:17:05.254Z,12.43
2018-11-23T08:19:36.726Z,12.43
2018-11-23T08:22:19.548Z,12.13
2018-11-23T08:24:51.405Z,13.53
2018-11-23T08:27:24.167Z,13.40
2018-11-23T08:29:54.881Z,12.47
2018-11-23T08:32:25.425Z,12.43
2018-11-23T08:34:56.321Z,13.73
2018-11-23T08:37:28.473Z,12.87
2018-11-23T08:39:58.974Z,13.60
2018-11-23T08:42:30.153Z,13.57
2018-11-23T08:45:01.567Z,13.53
2018-11-23T08:47:34.787Z,15.33
2018-11-23T08:50:09.274Z,14.57
2018-11-23T08:52:41.419Z,14.47
2018-11-23T08:55:13.632Z,14.43
2018-11-23T08:57:44.842Z,14.13
2018-11-23T09:00:24.224Z,13.57
2018-11-23T09:02:59.140Z,14.23
2018-11-23T09:05:29.675Z,13.23
2018-11-23T09:08:02.793Z,13.97
2018-11-23T09:10:42.950Z,14.57
2018-11-23T09:13:17.855Z,13.70
2018-11-23T09:15:49.723Z,13.57
2018-11-23T09:18:23.668Z,13.77
2018-11-23T09:20:57.794Z,14.63
2018-11-23T09:23:28.898Z,13.53
2018-11-23T09:25:59.963Z,12.87
2018-11-23T09:28:31.026Z,13.23
2018-11-23T09:31:01.922Z,12.70
2018-11-23T09:33:34.934Z,13.17
2018-11-23T09:36:08.161Z,12.07
2018-11-23T09:38:40.901Z,12.83
2018-11-23T09:41:15.472Z,12.97
2018-11-23T09:43:45.933Z,13.17
2018-11-23T09:46:17.502Z,11.60
2018-11-23T09:48:50.745Z,10.17
2018-11-23T09:51:25.158Z,13.40
2018-11-23T09:53:56.045Z,12.87
2018-11-23T09:56:28.931Z,13.30
2018-11-23T09:58:59.970Z,14.23
2018-11-23T10:01:34.209Z,13.23
2018-11-23T10:04:06.362Z,13.13
2018-11-23T10:06:37.437Z,12.70
2018-11-23T10:09:09.059Z,12.70
2018-11-23T10:11:40.616Z,13.47
2018-11-23T10:14:11.217Z,12.17
2018-11-23T10:16:46.525Z,12.93
2018-11-23T10:19:27.216Z,13.07
2018-11-23T10:21:59.726Z,12.47
2018-11-23T10:24:30.950Z,11.80
2018-11-23T10:27:02.385Z,13.13
2018-11-23T10:29:35.156Z,13.73
2018-11-23T10:32:06.478Z,13.87
2018-11-23T10:34:36.905Z,13.30
2018-11-23T10:37:07.505Z,13.40
2018-11-23T10:39:38.712Z,13.90
2018-11-23T10:42:10.871Z,13.37
2018-11-23T10:44:41.545Z,13.27
2018-11-23T10:47:14.430Z,13.47
2018-11-23T10:49:45.677Z,13.60
2018-11-23T10:52:16.668Z,13.30
2018-11-23T10:54:48.912Z,12.60
2018-11-23T10:57:24.331Z,12.43
2018-11-23T10:59:56.135Z,13.37
2018-11-23T11:02:32.399Z,14.47
2018-11-23T11:05:12.478Z,14.83
2018-11-23T11:07:43.720Z,14.77
2018-11-23T11:10:14.829Z,14.97
2018-11-23T11:12:46.211Z,14.80
2018-11-23T11:15:16.896Z,13.83
2018-11-23T11:17:47.836Z,14.80
2018-11-23T11:20:20.353Z,14.97
2018-11-23T11:22:51.222Z,14.13
2018-11-23T11:25:21.717Z,14.73
2018-11-23T11:27:53.429Z,13.70
2018-11-23T11:30:26.951Z,14.07
2018-11-23T11:32:59.951Z,14.13
2018-11-23T11:35:32.074Z,13.50
2018-11-23T11:38:02.993Z,14.10
2018-11-23T11:40:34.135Z,13.20
2018-11-23T11:43:07.360Z,11.50
2018-11-23T11:45:38.380Z,12.03
2018-11-23T11:48:09.374Z,12.50
2018-11-23T11:50:39.904Z,10.37
2018-11-23T11:53:10.600Z,7.70
2018-11-23T11:55:41.046Z,7.20
2018-11-23T11:58:11.629Z,7.67
2018-11-23T12:00:42.077Z,7.63
2018-11-23T12:03:12.800Z,6.93
2018-11-23T12:05:43.267Z,7.10
2018-11-23T12:08:14.867Z,6.57
2018-11-23T12:10:45.679Z,7.00
2018-11-23T12:13:16.151Z,6.87
2018-11-23T12:15:49.023Z,6.60
2018-11-23T12:18:20.447Z,6.80
2018-11-23T12:20:54.371Z,7.03
2018-11-23T12:23:24.864Z,8.20
2018-11-23T12:25:56.254Z,7.40
2018-11-23T12:28:26.826Z,7.07
2018-11-23T12:30:58.855Z,7.83
2018-11-23T12:33:29.717Z,7.80
2018-11-23T12:36:05.010Z,8.03
2018-11-23T12:38:43.012Z,8.30
2018-11-23T12:41:10.841Z,8.83
2018-11-23T12:43:45.331Z,8.20
2018-11-23T12:46:17.133Z,7.90
2018-11-23T12:48:49.781Z,11.40
2018-11-23T12:51:21.713Z,8.93
2018-11-23T12:53:53.723Z,8.83
2018-11-23T12:56:26.249Z,9.40
2018-11-23T12:58:58.339Z,9.10
2018-11-23T13:01:30.210Z,7.87
2018-11-23T13:04:01.717Z,7.77
2018-11-23T13:06:34.240Z,7.67
2018-11-23T13:09:06.764Z,8.30
2018-11-23T13:11:41.935Z,7.67
2018-11-23T13:14:13.715Z,8.40
2018-11-23T13:16:44.605Z,7.07
2018-11-23T13:19:18.080Z,7.47
2018-11-23T13:21:50.931Z,8.07
2018-11-23T13:24:22.352Z,7.47
2018-11-23T13:26:53.617Z,7.83
2018-11-23T13:29:24.755Z,8.50
2018-11-23T13:31:56.039Z,8.07
2018-11-23T13:34:27.416Z,8.50
2018-11-23T13:36:58.405Z,10.40
2018-11-23T13:39:29.457Z,9.07
2018-11-23T13:42:02.843Z,9.20
2018-11-23T13:44:35.807Z,10.23
2018-11-23T13:47:07.127Z,9.70
2018-11-23T13:49:39.752Z,10.20
2018-11-23T13:52:11.670Z,9.80
2018-11-23T13:54:42.896Z,9.67
2018-11-23T13:57:18.330Z,9.13
2018-11-23T13:59:52.934Z,9.20
2018-11-23T14:02:25.110Z,9.30
2018-11-23T14:04:58.257Z,9.93
2018-11-23T14:07:30.966Z,10.10
2018-11-23T14:10:03.560Z,10.00
2018-11-23T14:12:35.593Z,9.33
2018-11-23T14:15:13.815Z,9.70
2018-11-23T14:17:46.061Z,9.83
2018-11-23T14:20:19.003Z,8.87
2018-11-23T14:22:54.670Z,9.43
2018-11-23T14:25:27.066Z,9.27
2018-11-23T14:27:58.980Z,9.27
2018-11-23T14:30:31.446Z,9.00
2018-11-23T14:33:02.950Z,8.90
2018-11-23T14:35:36.025Z,9.97
2018-11-23T14:38:10.476Z,9.73
2018-11-23T14:40:43.295Z,10.17
2018-11-23T14:43:14.776Z,9.73
2018-11-23T14:45:45.744Z,10.20
2018-11-23T14:48:17.162Z,10.07
2018-11-23T14:50:51.174Z,10.37
2018-11-23T14:53:22.176Z,11.00
2018-11-23T14:55:53.217Z,10.33
2018-11-23T14:58:24.108Z,10.33
2018-11-23T15:00:55.228Z,11.47
2018-11-23T15:03:26.259Z,10.57
2018-11-23T15:05:58.400Z,10.83
2018-11-23T15:08:28.929Z,10.57
2018-11-23T15:10:59.592Z,11.13
2018-11-23T15:13:30.160Z,10.83
2018-11-23T15:16:01.187Z,11.43
2018-11-23T15:18:32.203Z,11.30
2018-11-23T15:21:03.180Z,12.20
2018-11-23T15:23:35.909Z,11.40
2018-11-23T15:26:07.142Z,11.63
2018-11-23T15:28:38.000Z,12.20
2018-11-23T15:31:09.124Z,11.70
2018-11-23T15:33:40.191Z,10.53
2018-11-23T15:36:12.208Z,12.30
2018-11-23T15:38:43.539Z,11.77
2018-11-23T15:41:14.715Z,8.77
2018-11-23T15:43:45.308Z,9.10
2018-11-23T15:46:15.753Z,9.23
2018-11-23T15:48:46.977Z,8.17
2018-11-23T15:51:17.551Z,8.43
2018-11-23T15:53:49.790Z,8.53
2018-11-23T15:56:20.250Z,9.13
2018-11-23T15:58:52.995Z,8.53
2018-11-23T16:01:23.661Z,8.53
2018-11-23T16:03:54.255Z,8.43
2018-11-23T16:06:25.378Z,8.80
2018-11-23T16:08:56.214Z,8.37
2018-11-23T16:11:28.341Z,8.17
2018-11-23T16:13:58.809Z,8.93
2018-11-23T16:16:30.402Z,8.53
2018-11-23T16:19:00.850Z,7.67
2018-11-23T16:21:31.771Z,7.17
2018-11-23T16:24:02.217Z,7.67
2018-11-23T16:26:32.780Z,8.20
2018-11-23T16:29:05.420Z,9.20
2018-11-23T16:31:36.206Z,9.27
2018-11-23T16:34:07.395Z,10.50
2018-11-23T16:36:39.282Z,9.67
2018-11-23T16:39:12.695Z,8.53
2018-11-23T16:41:43.295Z,7.30
2018-11-23T16:44:19.871Z,7.37
2018-11-23T16:46:51.953Z,7.53
2018-11-23T16:49:23.596Z,8.20
2018-11-23T16:51:57.127Z,6.67
2018-11-23T16:54:29.145Z,7.70
2018-11-23T16:56:59.794Z,7.50
2018-11-23T16:59:31.242Z,7.33
2018-11-23T17:02:03.174Z,7.70
2018-11-23T17:04:33.816Z,7.47
2018-11-23T17:07:12.702Z,7.73
2018-11-23T17:09:38.370Z,8.07
2018-11-23T17:12:08.897Z,8.07
2018-11-23T17:14:40.751Z,7.40
2018-11-23T17:17:14.685Z,7.87
2018-11-23T17:19:45.210Z,7.50
2018-11-23T17:22:16.208Z,7.23
2018-11-23T17:24:47.113Z,7.30
2018-11-23T17:27:19.511Z,6.77
2018-11-23T17:29:50.231Z,6.87
2018-11-23T17:32:22.140Z,7.77
2018-11-23T17:34:52.661Z,7.20
2018-11-23T17:37:23.000Z,7.80
2018-11-23T17:39:54.287Z,7.60
2018-11-23T17:42:25.267Z,6.80
2018-11-23T17:44:55.772Z,7.13
2018-11-23T17:47:29.049Z,7.00
2018-11-23T17:50:03.449Z,7.03
2018-11-23T17:52:37.345Z,6.73
2018-11-23T17:55:10.765Z,6.10
2018-11-23T17:57:43.562Z,6.03
2018-11-23T18:00:21.759Z,6.30
2018-11-23T18:02:54.539Z,6.37
2018-11-23T18:05:25.993Z,6.53
2018-11-23T18:07:59.028Z,7.83
2018-11-23T18:10:32.065Z,7.10
2018-11-23T18:13:03.163Z,7.20
2018-11-23T18:15:35.680Z,7.87
2018-11-23T18:18:07.334Z,6.67
2018-11-23T18:20:39.419Z,7.00
2018-11-23T18:23:11.242Z,7.80
2018-11-23T18:25:41.910Z,7.20
2018-11-23T18:28:13.849Z,7.57
2018-11-23T18:30:46.867Z,4.50
2018-11-23T18:33:18.197Z,5.33
2018-11-23T18:35:52.837Z,6.43
2018-11-23T18:38:27.888Z,5.27
2018-11-23T18:40:58.875Z,5.70
2018-11-23T18:43:29.449Z,5.30
2018-11-23T18:46:00.065Z,5.40
2018-11-23T18:48:30.654Z,5.57
2018-11-23T18:51:06.947Z,5.40
2018-11-23T18:53:40.312Z,5.57
2018-11-23T18:56:12.100Z,5.67
2018-11-23T18:58:46.187Z,6.10
2018-11-23T19:01:17.419Z,5.50
2018-11-23T19:03:51.717Z,5.77
2018-11-23T19:06:23.165Z,5.17
2018-11-23T19:08:54.446Z,5.23
2018-11-23T19:11:25.693Z,5.63
2018-11-23T19:14:01.123Z,5.50
2018-11-23T19:16:32.149Z,5.83
2018-11-23T19:19:04.274Z,5.93
2018-11-23T19:21:37.779Z,5.90
2018-11-23T19:24:13.702Z,5.70
2018-11-23T19:26:47.168Z,5.87
2018-11-23T19:29:22.050Z,5.40
2018-11-23T19:31:54.348Z,5.30
2018-11-23T19:34:26.285Z,5.33
2018-11-23T19:36:56.837Z,4.93
2018-11-23T19:39:28.276Z,4.90
2018-11-23T19:41:59.078Z,5.10
2018-11-23T19:44:30.519Z,5.43
2018-11-23T19:47:02.138Z,5.87
2018-11-23T19:49:32.647Z,6.97
2018-11-23T19:52:05.164Z,6.20
2018-11-23T19:54:35.672Z,6.57
2018-11-23T19:57:12.841Z,6.60
2018-11-23T19:59:44.367Z,6.30
2018-11-23T20:02:17.086Z,5.60
2018-11-23T20:04:47.744Z,5.73
2018-11-23T20:07:18.301Z,5.70
2018-11-23T20:09:50.329Z,6.37
2018-11-23T20:12:21.125Z,6.93
2018-11-23T20:14:52.098Z,6.53
2018-11-23T20:17:22.652Z,7.33
2018-11-23T20:19:53.992Z,7.00
2018-11-23T20:22:26.611Z,7.03
2018-11-23T20:24:57.845Z,7.80
2018-11-23T20:27:28.601Z,7.97
2018-11-23T20:29:59.222Z,8.40
2018-11-23T20:32:29.810Z,7.80
2018-11-23T20:35:00.273Z,8.17
2018-11-23T20:37:30.785Z,8.83
2018-11-23T20:40:01.301Z,8.90
2018-11-23T20:42:31.920Z,9.23
2018-11-23T20:45:03.990Z,10.37
2018-11-23T20:47:34.580Z,10.27
2018-11-23T20:50:17.438Z,10.23
2018-11-23T20:52:48.374Z,10.60
2018-11-23T20:55:23.249Z,10.00
2018-11-23T20:57:54.478Z,9.63
2018-11-23T21:00:25.687Z,11.40
2018-11-23T21:02:57.118Z,11.00
2018-11-23T21:05:28.095Z,11.00
2018-11-23T21:08:00.453Z,11.60
2018-11-23T21:10:31.457Z,11.03
2018-11-23T21:13:02.600Z,12.40
2018-11-23T21:15:33.997Z,11.57
2018-11-23T21:18:08.886Z,11.60
2018-11-23T21:20:42.945Z,11.20
2018-11-23T21:23:13.449Z,9.93
2018-11-23T21:25:46.661Z,10.53
2018-11-23T21:28:17.547Z,10.13
2018-11-23T21:30:49.802Z,10.40
2018-11-23T21:33:26.227Z,10.40
2018-11-23T21:36:00.634Z,10.93
2018-11-23T21:38:31.105Z,9.90
2018-11-23T21:41:06.851Z,9.90
2018-11-23T21:43:37.619Z,10.90
2018-11-23T21:46:18.152Z,11.00
2018-11-23T21:48:48.913Z,10.63
2018-11-23T21:51:19.407Z,11.17
2018-11-23T21:53:52.729Z,10.40
2018-11-23T21:56:25.953Z,10.33
2018-11-23T21:58:57.313Z,10.23
2018-11-23T22:01:28.082Z,10.00
2018-11-23T22:04:06.484Z,11.27
2018-11-23T22:06:35.586Z,11.00
2018-11-23T22:09:09.260Z,10.37
2018-11-23T22:11:40.467Z,10.67
2018-11-23T22:14:13.185Z,10.40
2018-11-23T22:16:48.440Z,10.97
2018-11-23T22:19:19.453Z,12.27
2018-11-23T22:21:53.075Z,10.67
2018-11-23T22:24:26.468Z,11.00
2018-11-23T22:26:57.342Z,11.17
2018-11-23T22:29:28.531Z,10.60
2018-11-23T22:32:01.302Z,11.50
2018-11-23T22:34:33.544Z,10.30
2018-11-23T22:37:04.753Z,11.40
2018-11-23T22:39:37.316Z,11.00
2018-11-23T22:42:08.938Z,11.47
2018-11-23T22:44:40.746Z,11.30
2018-11-23T22:47:11.690Z,11.67
2018-11-23T22:49:44.756Z,12.00
2018-11-23T22:52:20.765Z,11.00
2018-11-23T22:54:52.976Z,10.47
2018-11-23T22:57:25.133Z,11.00
2018-11-23T22:59:59.174Z,10.53
2018-11-23T23:02:32.606Z,10.83
2018-11-23T23:05:04.908Z,12.00
2018-11-23T23:07:36.763Z,11.13
2018-11-23T23:10:09.282Z,10.93
2018-11-23T23:12:41.970Z,11.07
2018-11-23T23:15:14.524Z,9.17
2018-11-23T23:17:47.937Z,10.37
2018-11-23T23:20:23.361Z,10.80
2018-11-23T23:22:55.446Z,11.57
2018-11-23T23:25:26.421Z,11.33
2018-11-23T23:27:59.398Z,11.20
2018-11-23T23:30:30.594Z,12.90
2018-11-23T23:33:02.353Z,13.20
2018-11-23T23:35:34.633Z,12.57
2018-11-23T23:38:09.156Z,13.00
2018-11-23T23:40:40.963Z,12.43
2018-11-23T23:43:12.201Z,12.10
2018-11-23T23:45:44.124Z,11.93
2018-11-23T23:48:14.941Z,11.03
2018-11-23T23:50:46.765Z,10.27
2018-11-23T23:53:17.771Z,11.93
2018-11-23T23:55:49.069Z,11.00
2018-11-23T23:58:24.660Z,12.03
